CheckWX is a tool to help pilots better visualize weather data.  It is not intended as a substitute for an official pre-flight weather briefing.

09:02:50 UTC

KACP METAR
Allen Parish Airport
Oakdale, Louisiana, USA
Current

8 mins ago

KACP 220855Z AUTO 00000KT 1 1/4SM BR OVC002 10/09 A2998 RMK AO2 60001 T00990091
Observed
Feb-22 @ 08:55 UTC
Visibility
1 1/4 SM
Flight Rules
LIFR
Conditions
Mist
Cloud Levels
  • Overcast at 200' AGL
Temperature
10°C / 50°F
Dewpoint
C / 48°F
Humidity
94%
Altimeter
29.98" Hg
Pressure
1015.22 hPa
Previous

28 mins ago

KACP 220835Z AUTO 00000KT 1 1/2SM BR OVC002 10/09 A2998 RMK AO2 T00980090
Observed
Feb-22 @ 08:35 UTC
Visibility
1 1/2 SM
Flight Rules
LIFR
Conditions
Mist
Cloud Levels
  • Overcast at 200' AGL
Temperature
10°C / 50°F
Dewpoint
C / 48°F
Humidity
94%
Altimeter
29.98" Hg
Pressure
1015.22 hPa
Previous

48 mins ago

KACP 220815Z AUTO 00000KT 1 3/4SM BR OVC004 10/09 A2998 RMK AO2 T00970090
Observed
Feb-22 @ 08:15 UTC
Visibility
1 3/4 SM
Flight Rules
LIFR
Conditions
Mist
Cloud Levels
  • Overcast at 400' AGL
Temperature
10°C / 50°F
Dewpoint
C / 48°F
Humidity
94%
Altimeter
29.98" Hg
Pressure
1015.22 hPa